Time;durP1;ratioP1;P1;durP2;ratioP2;P2;SDS_P1;SDS_P2;PMS_P1;PMS_P2;Temp;Humidity;BMP_temperature;BMP_pressure;BME280_temperature;BME280_humidity;BME280_pressure;Samples;Min_cycle;Max_cycle;Signal;HPM_P1;HPM_P2
2021/12/11 00:01:37;;;;;;;;;;;18.50;99.90;;;;;;5060277;28;19917;-74
2021/12/11 00:04:06;;;;;;;;;;;18.70;99.90;;;;;;5051166;28;20291;-73
2021/12/11 00:06:36;;;;;;;;;;;18.80;99.90;;;;;;5053139;28;19922;-72
2021/12/11 00:09:15;;;;;;;;;;;18.80;99.90;;;;;;5063945;28;19920;-73
2021/12/11 00:11:43;;;;;;;;;;;18.70;99.90;;;;;;5064006;28;19913;-73
2021/12/11 00:14:10;;;;;;;;;;;18.70;99.90;;;;;;5070276;28;19916;-73
2021/12/11 00:16:38;;;;;;;;;;;18.70;99.90;;;;;;5070901;28;19982;-73
2021/12/11 00:19:09;;;;;;;;;;;18.80;99.90;;;;;;5070351;28;19920;-74
2021/12/11 00:21:36;;;;;;;;;;;18.80;99.90;;;;;;5070845;28;19912;-74
2021/12/11 00:24:33;;;;;;;;;;;18.90;99.90;;;;;;5070229;28;20495;-74
2021/12/11 00:27:05;;;;;;;;;;;19.00;99.90;;;;;;5061117;28;20003;-73
2021/12/11 00:29:32;;;;;;;;;;;19.20;99.90;;;;;;5070617;28;20338;-73
2021/12/11 00:32:04;;;;;;;;;;;19.30;99.90;;;;;;5070467;28;19923;-74
2021/12/11 00:34:31;;;;;;;;;;;19.40;99.90;;;;;;5068875;28;19917;-74
2021/12/11 00:37:00;;;;;;;;;;;19.40;99.90;;;;;;5070652;28;19920;-74
2021/12/11 00:39:27;;;;;;;;;;;19.30;99.90;;;;;;5067883;28;19921;-74
2021/12/11 00:41:55;;;;;;;;;;;19.40;99.90;;;;;;5070003;28;20429;-74
2021/12/11 00:44:34;;;;;;;;;;;19.60;99.90;;;;;;5070483;28;19920;-73
2021/12/11 00:47:11;;;;;;;;;;;19.80;99.90;;;;;;5069042;28;19913;-74
2021/12/11 00:49:49;;;;;;;;;;;20.20;99.90;;;;;;5069204;28;19920;-74
2021/12/11 00:52:16;;;;;;;;;;;20.30;99.90;;;;;;5069992;28;20370;-73
2021/12/11 00:54:44;;;;;;;;;;;20.40;99.90;;;;;;5072679;28;19991;-74
2021/12/11 00:57:14;;;;;;;;;;;20.40;99.90;;;;;;5072252;28;19912;-73
2021/12/11 00:59:41;;;;;;;;;;;20.30;99.90;;;;;;5073858;28;20347;-73
2021/12/11 01:02:08;;;;;;;;;;;20.30;99.90;;;;;;5073656;28;19920;-72
2021/12/11 01:04:41;;;;;;;;;;;20.10;99.90;;;;;;5074107;28;19912;-73
2021/12/11 01:07:16;;;;;;;;;;;20.10;99.90;;;;;;5074317;28;19913;-73
2021/12/11 01:09:48;;;;;;;;;;;20.00;99.90;;;;;;5066331;28;19920;-73
2021/12/11 01:12:42;;;;;;;;;;;19.90;99.90;;;;;;5056890;28;20407;-73
2021/12/11 01:15:13;;;;;;;;;;;19.80;99.90;;;;;;5049090;28;19913;-74
2021/12/11 01:17:48;;;;;;;;;;;19.80;99.90;;;;;;5058301;28;20228;-74
2021/12/11 01:20:34;;;;;;;;;;;19.90;99.90;;;;;;5056361;28;20401;-74
2021/12/11 01:23:02;;;;;;;;;;;20.00;99.90;;;;;;5056048;28;19913;-73
2021/12/11 01:25:29;;;;;;;;;;;20.00;99.90;;;;;;5055707;28;20373;-74
2021/12/11 01:27:58;;;;;;;;;;;19.90;99.90;;;;;;5055369;28;19956;-73
2021/12/11 01:30:30;;;;;;;;;;;19.90;99.90;;;;;;5061822;28;19965;-73
2021/12/11 01:32:58;;;;;;;;;;;20.10;99.90;;;;;;5057067;28;19916;-74
2021/12/11 01:35:25;;;;;;;;;;;20.00;99.90;;;;;;5056034;28;19920;-73
2021/12/11 01:37:59;;;;;;;;;;;20.00;99.90;;;;;;5063918;28;19920;-74
2021/12/11 01:40:30;;;;;;;;;;;19.70;99.90;;;;;;5055470;28;19921;-75
2021/12/11 01:42:57;;;;;;;;;;;19.50;99.90;;;;;;5036470;28;20015;-74
2021/12/11 01:45:24;;;;;;;;;;;19.40;99.90;;;;;;5055046;28;19936;-75
2021/12/11 01:47:50;;;;;;;;;;;19.40;99.90;;;;;;5056980;28;20421;-75
2021/12/11 01:50:17;;;;;;;;;;;19.60;99.90;;;;;;5055043;28;19917;-74
2021/12/11 01:52:49;;;;;;;;;;;19.80;99.90;;;;;;5057469;28;20512;-75
2021/12/11 01:55:35;;;;;;;;;;;20.10;99.90;;;;;;5052266;28;19928;-75
2021/12/11 01:58:03;;;;;;;;;;;20.20;99.90;;;;;;5054375;28;19919;-75
2021/12/11 02:00:30;;;;;;;;;;;20.30;99.90;;;;;;5055017;28;19921;-74
2021/12/11 02:02:58;;;;;;;;;;;20.20;99.90;;;;;;5056019;28;19974;-75
2021/12/11 02:05:26;;;;;;;;;;;20.30;99.90;;;;;;5054802;28;20367;-75
2021/12/11 02:07:55;;;;;;;;;;;20.30;99.90;;;;;;5054851;28;19920;-75
2021/12/11 02:10:33;;;;;;;;;;;20.20;99.90;;;;;;5054118;28;19913;-77
2021/12/11 02:13:00;;;;;;;;;;;20.30;99.90;;;;;;5056003;28;19923;-75
2021/12/11 02:15:33;;;;;;;;;;;20.60;99.90;;;;;;5054882;28;19913;-74
2021/12/11 02:18:11;;;;;;;;;;;20.50;99.90;;;;;;5055502;28;19973;-74
2021/12/11 02:20:43;;;;;;;;;;;20.30;99.90;;;;;;5044881;28;19921;-76
2021/12/11 02:23:10;;;;;;;;;;;20.20;99.90;;;;;;5055951;28;20012;-74
2021/12/11 02:25:38;;;;;;;;;;;20.20;99.90;;;;;;5055000;28;20006;-75
2021/12/11 02:28:17;;;;;;;;;;;20.40;99.80;;;;;;5053539;28;19912;-74
2021/12/11 02:30:50;;;;;;;;;;;20.40;99.10;;;;;;5054917;28;19913;-75
2021/12/11 02:33:23;;;;;;;;;;;20.30;99.50;;;;;;5055931;28;19913;-74
2021/12/11 02:35:55;;;;;;;;;;;20.30;99.90;;;;;;5054911;28;20445;-73
2021/12/11 02:38:31;;;;;;;;;;;20.40;99.90;;;;;;5055955;28;19920;-75
2021/12/11 02:41:02;;;;;;;;;;;20.50;99.90;;;;;;5055454;28;20390;-76
2021/12/11 02:43:48;;;;;;;;;;;20.40;99.90;;;;;;5056654;28;20283;-74
2021/12/11 02:46:15;;;;;;;;;;;20.40;99.90;;;;;;5053746;28;19923;-75
2021/12/11 02:49:02;;;;;;;;;;;20.30;99.90;;;;;;5054242;28;19913;-72
2021/12/11 02:51:40;;;;;;;;;;;20.40;99.90;;;;;;5052566;28;19912;-74
2021/12/11 02:54:16;;;;;;;;;;;20.40;99.90;;;;;;5054240;28;19923;-76
2021/12/11 02:56:47;;;;;;;;;;;20.40;99.90;;;;;;5054763;28;19912;-74
2021/12/11 02:59:17;;;;;;;;;;;20.30;99.90;;;;;;5054022;28;19946;-75
2021/12/11 03:01:52;;;;;;;;;;;20.30;99.90;;;;;;5055252;28;19913;-75
2021/12/11 03:04:34;;;;;;;;;;;20.30;99.90;;;;;;5054443;28;20364;-76
2021/12/11 03:07:03;;;;;;;;;;;20.20;99.90;;;;;;5061902;28;19919;-75
2021/12/11 03:09:31;;;;;;;;;;;20.30;99.90;;;;;;5067074;28;19921;-74
2021/12/11 03:11:59;;;;;;;;;;;20.50;99.90;;;;;;5071278;28;19916;-76
2021/12/11 03:14:27;;;;;;;;;;;20.50;99.90;;;;;;5071330;28;19921;-75
2021/12/11 03:16:54;;;;;;;;;;;20.30;99.90;;;;;;5071045;28;20426;-75
2021/12/11 03:19:23;;;;;;;;;;;20.30;99.90;;;;;;5071273;28;20383;-73
2021/12/11 03:21:51;;;;;;;;;;;20.60;99.90;;;;;;5071204;28;19912;-73
2021/12/11 03:24:18;;;;;;;;;;;20.20;99.90;;;;;;5071317;28;19924;-74
2021/12/11 03:26:46;;;;;;;;;;;20.30;99.90;;;;;;5070880;28;19916;-73
2021/12/11 03:29:13;;;;;;;;;;;20.20;99.90;;;;;;5071171;28;19931;-74
2021/12/11 03:31:40;;;;;;;;;;;20.20;99.90;;;;;;5071183;28;20363;-73
2021/12/11 03:34:08;;;;;;;;;;;20.30;99.90;;;;;;5070913;28;20334;-73
2021/12/11 03:36:35;;;;;;;;;;;20.40;99.90;;;;;;5071307;28;19981;-74
2021/12/11 03:39:09;;;;;;;;;;;20.40;99.90;;;;;;5071143;28;19982;-74
2021/12/11 03:41:36;;;;;;;;;;;20.30;99.90;;;;;;5070664;28;19913;-73
2021/12/11 03:44:03;;;;;;;;;;;20.40;99.90;;;;;;5069680;28;19919;-72
2021/12/11 03:46:30;;;;;;;;;;;20.30;99.90;;;;;;5068242;28;19912;-72
2021/12/11 03:48:58;;;;;;;;;;;20.30;99.90;;;;;;5070555;28;19923;-71
2021/12/11 03:51:28;;;;;;;;;;;20.30;99.90;;;;;;5070833;28;19916;-73
2021/12/11 03:53:55;;;;;;;;;;;20.60;99.90;;;;;;5070905;28;19957;-72
2021/12/11 03:56:22;;;;;;;;;;;20.50;99.90;;;;;;5070587;28;19919;-74
2021/12/11 03:58:50;;;;;;;;;;;20.50;99.90;;;;;;5070762;28;19946;-73
2021/12/11 04:01:24;;;;;;;;;;;20.70;99.90;;;;;;5070323;28;19917;-74
2021/12/11 04:03:52;;;;;;;;;;;20.60;99.90;;;;;;5071019;28;20042;-72
2021/12/11 04:06:19;;;;;;;;;;;20.40;99.90;;;;;;5070648;28;19923;-73
2021/12/11 04:08:47;;;;;;;;;;;20.50;99.90;;;;;;5070804;28;19999;-74
2021/12/11 04:11:19;;;;;;;;;;;20.40;99.90;;;;;;5070648;28;20082;-75
2021/12/11 04:13:47;;;;;;;;;;;20.50;99.90;;;;;;5070350;28;19913;-73
2021/12/11 04:16:15;;;;;;;;;;;20.40;99.90;;;;;;5070892;28;19919;-75
2021/12/11 04:18:41;;;;;;;;;;;20.40;99.90;;;;;;5069986;28;20319;-73
2021/12/11 04:21:08;;;;;;;;;;;20.40;99.90;;;;;;5069692;28;20050;-72
2021/12/11 04:23:35;;;;;;;;;;;20.40;99.90;;;;;;5069129;28;20305;-73
2021/12/11 04:26:02;;;;;;;;;;;20.40;99.90;;;;;;5069209;28;19996;-72
2021/12/11 04:28:30;;;;;;;;;;;20.40;99.90;;;;;;5072862;28;19962;-74
2021/12/11 04:31:06;;;;;;;;;;;20.50;99.90;;;;;;5073127;28;19913;-73
2021/12/11 04:33:36;;;;;;;;;;;20.40;99.90;;;;;;5074508;28;19978;-73
2021/12/11 04:36:05;;;;;;;;;;;20.50;99.90;;;;;;5073988;28;19931;-72
2021/12/11 04:38:31;;;;;;;;;;;20.50;99.90;;;;;;5074389;28;19928;-73
2021/12/11 04:40:59;;;;;;;;;;;20.70;99.90;;;;;;5074335;28;19986;-74
2021/12/11 04:43:26;;;;;;;;;;;20.80;99.90;;;;;;5074050;28;19912;-72
2021/12/11 04:45:55;;;;;;;;;;;20.70;99.90;;;;;;5074355;28;19912;-72
2021/12/11 04:51:27;;;;;;;;;;;20.40;99.90;;;;;;5074331;28;19948;-73
2021/12/11 04:59:32;;;;;;;;;;;20.10;99.90;;;;;;5074194;28;19970;-73
2021/12/11 05:01:58;;;;;;;;;;;20.10;99.90;;;;;;5069787;28;19963;-73
2021/12/11 05:07:07;;;;;;;;;;;;;;;;;;;;;
2021/12/11 05:09:35;;;;;;;;;;;20.10;99.90;;;;;;5061025;28;19928;-71
2021/12/11 05:12:32;;;;;;;;;;;20.00;99.90;;;;;;5057101;28;19916;-73
2021/12/11 05:14:56;;;;;;;;;;;20.20;99.90;;;;;;5056972;28;19913;-74
2021/12/11 05:17:24;;;;;;;;;;;20.10;99.90;;;;;;5056086;28;19915;-74
2021/12/11 05:19:50;;;;;;;;;;;20.00;99.90;;;;;;5057259;28;19925;-72
2021/12/11 05:22:17;;;;;;;;;;;20.10;99.90;;;;;;5048480;28;20011;-73
2021/12/11 05:24:48;;;;;;;;;;;20.00;99.90;;;;;;5056187;28;19913;-73
2021/12/11 05:27:15;;;;;;;;;;;20.00;99.90;;;;;;5056523;28;19913;-73
2021/12/11 05:29:42;;;;;;;;;;;20.00;99.90;;;;;;5056125;28;19913;-73
2021/12/11 05:32:10;;;;;;;;;;;20.20;99.90;;;;;;5056901;28;20364;-73
2021/12/11 05:34:37;;;;;;;;;;;20.10;99.90;;;;;;5056279;28;19952;-73
2021/12/11 05:37:04;;;;;;;;;;;20.00;99.90;;;;;;5056898;28;19994;-72
2021/12/11 05:39:31;;;;;;;;;;;20.00;99.90;;;;;;5055224;28;19924;-73
2021/12/11 05:41:58;;;;;;;;;;;20.00;99.90;;;;;;5058957;28;20051;-73
2021/12/11 05:44:24;;;;;;;;;;;20.00;99.90;;;;;;5057204;28;19988;-72
2021/12/11 05:46:52;;;;;;;;;;;19.90;99.90;;;;;;5056991;28;19981;-73
2021/12/11 05:49:19;;;;;;;;;;;19.80;99.90;;;;;;5055860;28;19999;-73
2021/12/11 05:51:48;;;;;;;;;;;19.90;99.90;;;;;;5056304;28;19912;-72
2021/12/11 05:54:18;;;;;;;;;;;19.70;99.90;;;;;;5055820;28;19917;-73
2021/12/11 05:56:45;;;;;;;;;;;19.50;99.90;;;;;;5056712;28;19962;-74
2021/12/11 05:59:13;;;;;;;;;;;19.50;99.90;;;;;;5055264;28;20297;-74
2021/12/11 06:01:45;;;;;;;;;;;19.50;99.90;;;;;;5057414;28;19924;-75
2021/12/11 06:04:17;;;;;;;;;;;19.50;99.90;;;;;;5055351;28;20367;-73
2021/12/11 06:06:44;;;;;;;;;;;19.60;99.90;;;;;;5057223;28;20003;-75
2021/12/11 06:09:12;;;;;;;;;;;19.60;99.90;;;;;;5055124;28;19956;-73
2021/12/11 06:11:39;;;;;;;;;;;19.60;99.90;;;;;;5056557;28;20189;-74
2021/12/11 06:14:06;;;;;;;;;;;19.60;99.90;;;;;;5047281;28;19913;-73
2021/12/11 06:16:33;;;;;;;;;;;19.60;99.90;;;;;;5055652;28;20303;-74
2021/12/11 06:19:04;;;;;;;;;;;19.40;99.90;;;;;;5055609;28;19917;-74
2021/12/11 06:21:32;;;;;;;;;;;19.30;99.90;;;;;;5058809;28;20383;-72
2021/12/11 06:23:58;;;;;;;;;;;19.30;99.90;;;;;;5062147;28;19920;-73
2021/12/11 06:26:25;;;;;;;;;;;19.50;99.90;;;;;;5055140;28;19924;-74
2021/12/11 06:28:52;;;;;;;;;;;19.50;99.90;;;;;;5055886;28;19920;-73
2021/12/11 06:31:19;;;;;;;;;;;19.50;99.90;;;;;;5062600;28;19912;-73
2021/12/11 06:33:50;;;;;;;;;;;19.50;99.90;;;;;;5055840;28;19913;-73
2021/12/11 06:36:18;;;;;;;;;;;19.30;99.90;;;;;;5054842;28;19928;-75
2021/12/11 06:38:46;;;;;;;;;;;19.20;99.90;;;;;;5063114;28;20011;-75
2021/12/11 06:41:14;;;;;;;;;;;19.10;99.90;;;;;;5054855;28;20055;-73
2021/12/11 06:43:41;;;;;;;;;;;19.20;99.90;;;;;;5055588;28;19920;-74
2021/12/11 06:46:08;;;;;;;;;;;19.20;99.90;;;;;;5054665;28;19923;-74
2021/12/11 06:48:35;;;;;;;;;;;19.30;99.90;;;;;;5055801;28;20383;-73
2021/12/11 06:51:02;;;;;;;;;;;19.30;99.90;;;;;;5053369;28;19919;-75
2021/12/11 06:53:37;;;;;;;;;;;19.20;99.90;;;;;;5053686;28;19913;-75
2021/12/11 06:56:05;;;;;;;;;;;19.30;99.90;;;;;;5054495;28;19967;-74
2021/12/11 06:58:32;;;;;;;;;;;19.40;99.90;;;;;;5056043;28;20352;-73
2021/12/11 07:00:59;;;;;;;;;;;19.30;99.90;;;;;;5053554;28;19975;-73
2021/12/11 07:03:26;;;;;;;;;;;19.30;99.90;;;;;;5055689;28;19917;-74
2021/12/11 07:05:53;;;;;;;;;;;19.30;99.90;;;;;;5053786;28;19967;-72
2021/12/11 07:08:22;;;;;;;;;;;19.20;99.90;;;;;;5058715;28;19931;-73
2021/12/11 07:10:49;;;;;;;;;;;19.20;99.90;;;;;;5071878;28;19999;-72
2021/12/11 07:13:16;;;;;;;;;;;19.10;99.90;;;;;;5071356;28;19931;-72
2021/12/11 07:15:42;;;;;;;;;;;19.00;99.90;;;;;;5070004;28;19917;-73
2021/12/11 07:18:10;;;;;;;;;;;19.10;99.90;;;;;;5071337;28;20341;-74
2021/12/11 07:20:36;;;;;;;;;;;19.10;99.90;;;;;;5071552;28;19930;-73
2021/12/11 07:23:04;;;;;;;;;;;19.10;99.90;;;;;;5068932;28;19982;-73
2021/12/11 07:25:33;;;;;;;;;;;19.00;99.90;;;;;;5071334;28;19913;-73
2021/12/11 07:28:03;;;;;;;;;;;18.90;99.90;;;;;;5071058;28;20026;-73
2021/12/11 07:30:31;;;;;;;;;;;18.80;99.90;;;;;;5070870;28;20049;-74
2021/12/11 07:32:59;;;;;;;;;;;18.70;99.90;;;;;;5071216;28;20007;-72
2021/12/11 07:35:26;;;;;;;;;;;18.70;99.90;;;;;;5069243;28;19916;-73
2021/12/11 07:37:53;;;;;;;;;;;18.70;99.90;;;;;;5071021;28;20295;-74
2021/12/11 07:40:22;;;;;;;;;;;18.60;99.90;;;;;;5071106;28;19928;-74
2021/12/11 07:42:49;;;;;;;;;;;18.60;99.90;;;;;;5071175;28;20260;-73
2021/12/11 07:45:36;;;;;;;;;;;18.50;99.90;;;;;;5070557;28;19913;-74
2021/12/11 07:48:06;;;;;;;;;;;18.50;99.90;;;;;;5069578;28;19916;-74
2021/12/11 07:50:39;;;;;;;;;;;18.40;99.90;;;;;;5071295;28;19931;-73
2021/12/11 07:53:06;;;;;;;;;;;18.50;99.90;;;;;;5071098;28;19962;-73
2021/12/11 07:55:33;;;;;;;;;;;18.40;99.90;;;;;;5071089;28;19912;-74
2021/12/11 07:58:01;;;;;;;;;;;18.40;99.90;;;;;;5070354;28;19913;-73
2021/12/11 08:00:28;;;;;;;;;;;18.40;99.90;;;;;;5070287;28;19950;-74
2021/12/11 08:02:55;;;;;;;;;;;18.30;99.90;;;;;;5070565;28;20005;-73
2021/12/11 08:05:23;;;;;;;;;;;18.30;99.90;;;;;;5069952;28;19956;-74
2021/12/11 08:07:50;;;;;;;;;;;18.30;99.90;;;;;;5070934;28;20367;-74
2021/12/11 08:10:18;;;;;;;;;;;18.30;99.90;;;;;;5054673;28;19921;-74
2021/12/11 08:12:45;;;;;;;;;;;18.30;99.90;;;;;;5052905;28;19920;-75
2021/12/11 08:15:13;;;;;;;;;;;18.30;99.90;;;;;;5053904;28;20011;-74
2021/12/11 08:17:39;;;;;;;;;;;18.30;99.90;;;;;;5052958;28;19924;-73
2021/12/11 08:20:08;;;;;;;;;;;18.20;99.90;;;;;;5051682;28;19929;-73
2021/12/11 08:22:35;;;;;;;;;;;18.10;99.90;;;;;;5054145;28;19923;-72
2021/12/11 08:25:03;;;;;;;;;;;18.10;99.90;;;;;;5053235;28;19912;-74
2021/12/11 08:27:30;;;;;;;;;;;18.10;99.90;;;;;;5053974;28;19983;-73
2021/12/11 08:29:59;;;;;;;;;;;18.00;99.90;;;;;;5052794;28;19925;-73
2021/12/11 08:32:25;;;;;;;;;;;18.00;99.90;;;;;;5054059;28;20390;-73
2021/12/11 08:34:52;;;;;;;;;;;17.90;99.90;;;;;;5052991;28;19967;-73
2021/12/11 08:37:22;;;;;;;;;;;17.90;99.90;;;;;;5054066;28;20379;-73
2021/12/11 08:39:49;;;;;;;;;;;17.90;99.90;;;;;;5052658;28;19920;-73
2021/12/11 08:42:18;;;;;;;;;;;17.80;99.90;;;;;;5053973;28;19919;-74
2021/12/11 08:44:58;;;;;;;;;;;17.90;99.90;;;;;;5052974;28;19912;-74
2021/12/11 08:47:25;;;;;;;;;;;17.90;99.90;;;;;;5053536;28;19959;-73
2021/12/11 08:49:52;;;;;;;;;;;17.80;99.90;;;;;;5052835;28;19913;-72
2021/12/11 08:52:22;;;;;;;;;;;17.80;99.90;;;;;;5054029;28;19921;-73
2021/12/11 08:54:50;;;;;;;;;;;17.80;99.90;;;;;;5052645;28;19968;-73
2021/12/11 08:57:20;;;;;;;;;;;17.80;99.90;;;;;;5053545;28;19979;-74
2021/12/11 08:59:49;;;;;;;;;;;17.80;99.90;;;;;;5058300;28;20388;-73
2021/12/11 09:02:21;;;;;;;;;;;17.70;99.90;;;;;;5059555;28;20442;-74
2021/12/11 09:05:10;;;;;;;;;;;17.70;99.90;;;;;;5053103;28;20298;-73
2021/12/11 09:07:39;;;;;;;;;;;17.70;99.90;;;;;;5055519;28;19956;-73
2021/12/11 09:10:09;;;;;;;;;;;17.70;99.90;;;;;;5069907;28;19974;-73
2021/12/11 09:12:55;;;;;;;;;;;17.60;99.90;;;;;;5070360;28;19913;-74
2021/12/11 09:15:27;;;;;;;;;;;17.60;99.90;;;;;;5071994;28;19916;-72
2021/12/11 09:18:02;;;;;;;;;;;17.60;99.90;;;;;;5073993;28;19917;-73
2021/12/11 09:20:43;;;;;;;;;;;17.60;99.90;;;;;;5071344;28;20299;-73
2021/12/11 09:23:10;;;;;;;;;;;17.60;99.90;;;;;;5073825;28;19964;-73
2021/12/11 09:25:42;;;;;;;;;;;17.60;99.90;;;;;;5073682;28;19991;-74
2021/12/11 09:28:12;;;;;;;;;;;17.60;99.90;;;;;;5073350;28;19917;-73
2021/12/11 09:30:48;;;;;;;;;;;17.50;99.90;;;;;;5073396;28;19984;-73
2021/12/11 09:33:17;;;;;;;;;;;17.50;99.90;;;;;;5073548;28;20290;-74
2021/12/11 09:35:51;;;;;;;;;;;17.50;99.90;;;;;;5073616;28;19912;-73
2021/12/11 09:38:24;;;;;;;;;;;17.50;99.90;;;;;;5073598;28;19920;-74
2021/12/11 09:40:54;;;;;;;;;;;17.40;99.90;;;;;;5073342;28;19920;-73
2021/12/11 09:43:32;;;;;;;;;;;17.40;99.90;;;;;;5073038;28;19916;-74
2021/12/11 09:46:00;;;;;;;;;;;17.50;99.90;;;;;;5073591;28;19928;-74
2021/12/11 09:48:27;;;;;;;;;;;17.40;99.90;;;;;;5077595;28;20013;-74
2021/12/11 09:51:00;;;;;;;;;;;17.40;99.90;;;;;;5072632;28;19913;-73
2021/12/11 09:53:35;;;;;;;;;;;17.40;99.90;;;;;;5072609;28;19970;-73
2021/12/11 09:56:06;;;;;;;;;;;17.40;99.90;;;;;;5072210;28;19913;-73
2021/12/11 09:58:34;;;;;;;;;;;17.40;99.90;;;;;;5073096;28;20256;-72
2021/12/11 10:01:08;;;;;;;;;;;17.30;99.90;;;;;;5073144;28;19967;-72
2021/12/11 10:03:40;;;;;;;;;;;17.30;99.90;;;;;;5073007;28;19920;-72
2021/12/11 10:06:15;;;;;;;;;;;17.30;99.90;;;;;;5073224;28;20327;-71
2021/12/11 10:08:56;;;;;;;;;;;17.30;99.90;;;;;;5067903;28;20275;-72
2021/12/11 10:11:24;;;;;;;;;;;17.30;99.90;;;;;;5053500;28;19913;-72
2021/12/11 10:13:57;;;;;;;;;;;17.30;99.90;;;;;;5054337;28;19924;-72
2021/12/11 10:16:25;;;;;;;;;;;17.20;99.90;;;;;;5053340;28;19913;-72
2021/12/11 10:18:53;;;;;;;;;;;17.20;99.90;;;;;;5055138;28;19917;-72
2021/12/11 10:21:26;;;;;;;;;;;17.20;99.90;;;;;;5060071;28;20008;-73
2021/12/11 10:23:54;;;;;;;;;;;17.20;99.90;;;;;;5055177;28;20355;-71
2021/12/11 10:26:22;;;;;;;;;;;17.10;99.90;;;;;;5052751;28;19913;-72
2021/12/11 10:28:51;;;;;;;;;;;17.10;99.90;;;;;;5054295;28;19921;-72
2021/12/11 10:31:28;;;;;;;;;;;17.10;99.90;;;;;;5045117;28;19913;-73
2021/12/11 10:33:57;;;;;;;;;;;17.00;99.90;;;;;;5054292;28;19917;-72
2021/12/11 10:36:28;;;;;;;;;;;17.10;99.90;;;;;;5034588;28;19938;-72
2021/12/11 10:38:55;;;;;;;;;;;17.10;99.90;;;;;;5054635;28;19912;-72
2021/12/11 10:41:23;;;;;;;;;;;17.10;99.90;;;;;;5052632;28;19925;-72
2021/12/11 10:43:55;;;;;;;;;;;17.00;99.90;;;;;;5053768;28;20371;-73
2021/12/11 10:46:25;;;;;;;;;;;17.00;99.90;;;;;;5045200;28;19917;-72
2021/12/11 10:48:52;;;;;;;;;;;17.00;99.90;;;;;;5053145;28;20389;-72
2021/12/11 10:51:23;;;;;;;;;;;17.00;99.90;;;;;;5044344;28;20315;-72
2021/12/11 10:53:51;;;;;;;;;;;17.00;99.90;;;;;;5050917;28;20284;-72
2021/12/11 10:56:19;;;;;;;;;;;16.90;99.90;;;;;;5052410;28;20324;-72
2021/12/11 10:58:48;;;;;;;;;;;17.00;99.90;;;;;;5052765;28;19940;-72
2021/12/11 11:01:17;;;;;;;;;;;17.00;99.90;;;;;;5052637;28;19931;-72
2021/12/11 11:03:47;;;;;;;;;;;17.00;99.90;;;;;;5052567;28;19928;-72
2021/12/11 11:06:14;;;;;;;;;;;16.90;99.90;;;;;;5065530;28;20317;-72
2021/12/11 11:08:42;;;;;;;;;;;16.90;99.90;;;;;;5063359;28;19981;-72
2021/12/11 11:11:12;;;;;;;;;;;17.00;99.90;;;;;;5069869;28;19916;-73
2021/12/11 11:13:41;;;;;;;;;;;16.90;99.90;;;;;;5069368;28;19920;-72
2021/12/11 11:16:08;;;;;;;;;;;16.90;99.90;;;;;;5069628;28;19920;-72
2021/12/11 11:18:34;;;;;;;;;;;16.90;99.90;;;;;;5069516;28;19920;-72
2021/12/11 11:21:06;;;;;;;;;;;16.80;99.90;;;;;;5069468;28;19932;-72
2021/12/11 11:23:36;;;;;;;;;;;16.80;99.90;;;;;;5069459;28;19924;-72
2021/12/11 11:26:05;;;;;;;;;;;16.80;99.90;;;;;;5069424;28;19966;-71
2021/12/11 11:28:33;;;;;;;;;;;16.80;99.90;;;;;;5069251;28;19912;-72
2021/12/11 11:31:01;;;;;;;;;;;16.80;99.90;;;;;;5068294;28;19969;-72
2021/12/11 11:33:28;;;;;;;;;;;16.80;99.90;;;;;;5069289;28;20482;-72
2021/12/11 11:35:56;;;;;;;;;;;16.70;99.90;;;;;;5069311;28;19927;-72
2021/12/11 11:38:27;;;;;;;;;;;16.80;99.90;;;;;;5068981;28;19917;-72
2021/12/11 11:40:56;;;;;;;;;;;16.70;99.90;;;;;;5069209;28;19920;-71
2021/12/11 11:43:23;;;;;;;;;;;16.70;99.90;;;;;;5069499;28;19966;-73
2021/12/11 11:45:52;;;;;;;;;;;16.70;99.90;;;;;;5067239;28;19916;-73
2021/12/11 11:48:22;;;;;;;;;;;16.70;99.90;;;;;;5069449;28;20337;-73
2021/12/11 11:50:49;;;;;;;;;;;16.60;99.90;;;;;;5068980;28;19920;-73
2021/12/11 11:53:19;;;;;;;;;;;16.70;99.90;;;;;;5069186;28;19916;-72
2021/12/11 11:55:48;;;;;;;;;;;16.60;99.90;;;;;;5068803;28;19920;-72
2021/12/11 11:58:16;;;;;;;;;;;16.70;99.90;;;;;;5069213;28;19916;-73
2021/12/11 12:00:54;;;;;;;;;;;16.70;99.90;;;;;;5068666;28;19920;-72
2021/12/11 12:03:22;;;;;;;;;;;16.70;99.90;;;;;;5069532;28;20010;-72
2021/12/11 12:05:51;;;;;;;;;;;16.70;99.90;;;;;;5068259;28;19935;-72
2021/12/11 12:08:17;;;;;;;;;;;16.70;99.90;;;;;;5069182;28;19920;-72
2021/12/11 12:10:46;;;;;;;;;;;16.70;99.90;;;;;;5053892;28;20000;-74
2021/12/11 12:13:14;;;;;;;;;;;16.70;99.90;;;;;;5051162;28;19923;-71
2021/12/11 12:15:46;;;;;;;;;;;16.70;99.90;;;;;;5052493;28;19916;-72
2021/12/11 12:18:13;;;;;;;;;;;16.60;99.90;;;;;;5044214;28;19920;-73
2021/12/11 12:20:41;;;;;;;;;;;16.60;99.90;;;;;;5052430;28;20026;-73
2021/12/11 12:23:08;;;;;;;;;;;16.60;99.90;;;;;;5051340;28;19917;-72
2021/12/11 12:25:35;;;;;;;;;;;16.50;99.90;;;;;;5051330;28;19916;-71
2021/12/11 12:28:02;;;;;;;;;;;16.50;99.90;;;;;;5058817;28;19917;-73
2021/12/11 12:30:36;;;;;;;;;;;16.40;99.90;;;;;;5051503;28;19922;-72
2021/12/11 12:33:03;;;;;;;;;;;16.40;99.90;;;;;;5058793;28;19913;-71
2021/12/11 12:35:30;;;;;;;;;;;16.40;99.90;;;;;;5051407;28;19927;-73
2021/12/11 12:37:59;;;;;;;;;;;16.40;99.90;;;;;;5051926;28;19913;-71
2021/12/11 12:40:34;;;;;;;;;;;16.40;99.90;;;;;;5051351;28;19925;-71
2021/12/11 12:43:10;;;;;;;;;;;16.30;99.90;;;;;;5051767;28;19959;-71
2021/12/11 12:45:42;;;;;;;;;;;16.30;99.90;;;;;;5051459;28;19916;-71
2021/12/11 12:48:11;;;;;;;;;;;16.30;99.90;;;;;;5056352;28;20293;-72
2021/12/11 12:50:39;;;;;;;;;;;16.30;99.90;;;;;;5055340;28;19913;-72
2021/12/11 12:53:06;;;;;;;;;;;16.30;99.90;;;;;;5063708;28;19966;-71
2021/12/11 12:55:39;;;;;;;;;;;16.20;99.90;;;;;;5055138;28;20283;-72
2021/12/11 12:58:10;;;;;;;;;;;16.20;99.90;;;;;;5044937;28;19917;-72
2021/12/11 13:00:40;;;;;;;;;;;16.20;99.90;;;;;;5054897;28;19929;-72
2021/12/11 13:03:09;;;;;;;;;;;16.20;99.90;;;;;;5063124;28;20380;-72
2021/12/11 13:05:43;;;;;;;;;;;16.10;99.90;;;;;;5054994;28;19947;-72
2021/12/11 13:08:12;;;;;;;;;;;16.00;99.90;;;;;;5066147;28;19913;-71
2021/12/11 13:10:42;;;;;;;;;;;15.90;99.90;;;;;;5072221;28;19916;-71
2021/12/11 13:13:12;;;;;;;;;;;15.90;99.90;;;;;;5070985;28;19916;-72
2021/12/11 13:15:44;;;;;;;;;;;15.90;99.90;;;;;;5072001;28;19924;-71
2021/12/11 13:18:14;;;;;;;;;;;15.90;99.90;;;;;;5104610;28;20323;-71
2021/12/11 13:20:49;;;;;;;;;;;16.10;99.90;;;;;;5072105;28;19920;-72
2021/12/11 13:23:17;;;;;;;;;;;16.00;99.90;;;;;;5072383;28;19966;-71
2021/12/11 13:25:50;;;;;;;;;;;15.90;99.90;;;;;;5071417;28;19912;-73
2021/12/11 13:28:17;;;;;;;;;;;15.60;99.90;;;;;;5070647;28;20011;-73
2021/12/11 13:30:50;;;;;;;;;;;15.50;99.90;;;;;;5071872;28;19913;-72
2021/12/11 13:33:18;;;;;;;;;;;15.40;99.90;;;;;;5071764;28;19912;-71
2021/12/11 13:35:45;;;;;;;;;;;15.30;99.90;;;;;;5071763;28;19916;-72
2021/12/11 13:38:16;;;;;;;;;;;15.30;99.90;;;;;;5070413;28;19923;-71
2021/12/11 13:40:45;;;;;;;;;;;15.30;99.90;;;;;;5071352;28;19924;-72
2021/12/11 13:43:12;;;;;;;;;;;15.30;99.90;;;;;;5070623;28;19927;-72
2021/12/11 13:45:40;;;;;;;;;;;15.30;99.90;;;;;;5070330;28;19924;-71
2021/12/11 13:48:10;;;;;;;;;;;15.30;99.90;;;;;;5071310;28;19912;-74
2021/12/11 13:50:40;;;;;;;;;;;15.40;99.90;;;;;;5071175;28;19924;-74
2021/12/11 13:53:07;;;;;;;;;;;15.40;99.90;;;;;;5071476;28;19920;-73
2021/12/11 13:55:34;;;;;;;;;;;15.40;99.90;;;;;;5071173;28;19912;-73
2021/12/11 13:58:02;;;;;;;;;;;15.40;99.90;;;;;;5071333;28;20038;-73
2021/12/11 14:00:30;;;;;;;;;;;15.50;99.90;;;;;;5070401;28;19927;-74
2021/12/11 14:02:57;;;;;;;;;;;15.50;99.90;;;;;;5071320;28;19924;-73
2021/12/11 14:05:25;;;;;;;;;;;15.60;99.90;;;;;;5070958;28;20311;-74
2021/12/11 14:07:51;;;;;;;;;;;15.60;99.90;;;;;;5069921;28;19995;-74
2021/12/11 14:10:27;;;;;;;;;;;15.70;99.90;;;;;;5071381;28;19959;-73
2021/12/11 14:12:56;;;;;;;;;;;15.70;99.90;;;;;;5071195;28;19912;-73
2021/12/11 14:15:24;;;;;;;;;;;15.70;99.90;;;;;;5071362;28;19974;-73
2021/12/11 14:17:50;;;;;;;;;;;15.80;99.90;;;;;;5068835;28;19931;-73
2021/12/11 14:20:18;;;;;;;;;;;15.70;99.90;;;;;;5071270;28;19978;-73
2021/12/11 14:22:45;;;;;;;;;;;15.70;99.90;;;;;;5070771;28;19916;-74
2021/12/11 14:25:13;;;;;;;;;;;15.70;99.90;;;;;;5071254;28;19919;-73
2021/12/11 14:27:40;;;;;;;;;;;15.70;99.90;;;;;;5070751;28;19983;-74
2021/12/11 14:30:11;;;;;;;;;;;15.70;99.90;;;;;;5070645;28;19984;-73
2021/12/11 14:32:42;;;;;;;;;;;15.70;99.90;;;;;;5070919;28;19927;-73
2021/12/11 14:35:10;;;;;;;;;;;15.70;99.90;;;;;;5069885;28;19912;-73
2021/12/11 14:37:37;;;;;;;;;;;15.70;99.90;;;;;;5078214;28;20021;-73
2021/12/11 14:40:05;;;;;;;;;;;15.80;99.90;;;;;;5074228;28;19994;-71
2021/12/11 14:42:33;;;;;;;;;;;15.80;99.90;;;;;;5070481;28;19966;-72
2021/12/11 14:45:03;;;;;;;;;;;15.80;99.90;;;;;;5068808;28;20325;-73